createdAt,value
2018-12-25T00:02:28.589Z,8.30
2018-12-25T00:04:57.378Z,9.83
2018-12-25T00:07:26.104Z,9.55
2018-12-25T00:09:54.877Z,11.30
2018-12-25T00:12:23.649Z,13.88
2018-12-25T00:14:52.459Z,9.03
2018-12-25T00:17:21.200Z,10.43
2018-12-25T00:19:49.968Z,7.53
2018-12-25T00:22:18.789Z,9.63
2018-12-25T00:24:47.543Z,12.47
2018-12-25T00:27:16.318Z,14.40
2018-12-25T00:29:45.101Z,11.03
2018-12-25T00:32:13.861Z,16.15
2018-12-25T00:34:42.667Z,12.58
2018-12-25T00:37:11.489Z,13.95
2018-12-25T00:39:40.229Z,8.23
2018-12-25T00:42:09.427Z,8.88
2018-12-25T00:44:38.260Z,9.25
2018-12-25T00:47:07.342Z,12.18
2018-12-25T00:49:36.510Z,13.85
2018-12-25T00:52:05.657Z,15.08
2018-12-25T00:54:34.461Z,19.15
2018-12-25T00:57:03.213Z,12.05
2018-12-25T00:59:31.981Z,11.93
2018-12-25T01:02:02.238Z,13.10
2018-12-25T01:04:31.192Z,12.25
2018-12-25T01:06:59.992Z,19.20
2018-12-25T01:09:28.834Z,11.38
2018-12-25T01:11:57.743Z,13.32
2018-12-25T01:14:26.518Z,21.42
2018-12-25T01:16:55.305Z,41.70
2018-12-25T01:19:24.097Z,14.75
2018-12-25T01:21:52.887Z,12.23
2018-12-25T01:24:21.633Z,12.70
2018-12-25T01:26:50.462Z,13.60
2018-12-25T01:29:19.278Z,12.75
2018-12-25T01:31:48.045Z,10.08
2018-12-25T01:34:16.791Z,11.43
2018-12-25T01:36:45.535Z,10.70
2018-12-25T01:39:14.305Z,12.33
2018-12-25T01:41:43.354Z,11.78
2018-12-25T01:44:12.127Z,14.33
2018-12-25T01:46:40.881Z,16.62
2018-12-25T01:49:09.612Z,14.07
2018-12-25T01:51:38.391Z,17.02
2018-12-25T01:54:07.201Z,14.80
2018-12-25T01:56:35.960Z,19.10
2018-12-25T01:59:04.703Z,30.15
2018-12-25T02:01:33.465Z,15.58
2018-12-25T02:04:02.244Z,19.12
2018-12-25T02:06:31.045Z,16.48
2018-12-25T02:08:59.822Z,19.50
2018-12-25T02:11:28.933Z,21.80
2018-12-25T02:13:57.673Z,12.40
2018-12-25T02:16:26.401Z,15.18
2018-12-25T02:18:55.156Z,21.65
2018-12-25T02:21:23.929Z,13.68
2018-12-25T02:23:52.770Z,16.05
2018-12-25T02:26:21.561Z,13.43
2018-12-25T02:28:50.368Z,13.83
2018-12-25T02:31:19.179Z,15.00
2018-12-25T02:33:47.992Z,12.70
2018-12-25T02:36:16.765Z,13.48
2018-12-25T02:38:45.602Z,16.75
2018-12-25T02:41:14.415Z,13.58
2018-12-25T02:43:44.622Z,10.90
2018-12-25T02:46:13.372Z,11.78
2018-12-25T02:48:43.566Z,12.37
2018-12-25T02:51:12.372Z,11.43
2018-12-25T02:53:41.110Z,13.80
2018-12-25T02:56:09.878Z,12.65
2018-12-25T02:58:38.641Z,12.93
2018-12-25T03:01:07.428Z,13.05
2018-12-25T03:03:36.193Z,10.20
2018-12-25T03:06:04.988Z,10.45
2018-12-25T03:08:33.820Z,12.43
2018-12-25T03:11:02.585Z,12.13
2018-12-25T03:13:31.394Z,18.50
2018-12-25T03:16:00.220Z,8.65
2018-12-25T03:18:28.957Z,14.45
2018-12-25T03:20:57.963Z,13.85
2018-12-25T03:23:26.733Z,13.35
2018-12-25T03:25:55.460Z,12.93
2018-12-25T03:28:24.242Z,15.20
2018-12-25T03:30:52.999Z,16.97
2018-12-25T03:33:21.754Z,13.90
2018-12-25T03:35:50.564Z,17.02
2018-12-25T03:38:19.304Z,15.03
2018-12-25T03:40:48.050Z,13.22
2018-12-25T03:43:16.816Z,9.78
2018-12-25T03:45:45.586Z,11.20
2018-12-25T03:48:14.400Z,15.60
2018-12-25T03:50:43.246Z,10.80
2018-12-25T03:53:12.325Z,12.18
2018-12-25T03:55:41.082Z,8.73
2018-12-25T03:58:09.855Z,13.45
2018-12-25T04:00:38.622Z,14.15
2018-12-25T04:03:07.341Z,10.15
2018-12-25T04:05:36.090Z,12.60
2018-12-25T04:08:04.859Z,14.40
2018-12-25T04:10:33.955Z,10.65
2018-12-25T04:13:03.174Z,8.33
2018-12-25T04:15:31.931Z,8.83
2018-12-25T04:18:00.715Z,12.33
2018-12-25T04:20:29.558Z,13.83
2018-12-25T04:22:58.292Z,10.10
2018-12-25T04:25:27.032Z,9.65
2018-12-25T04:27:55.835Z,10.95
2018-12-25T04:30:24.548Z,8.93
2018-12-25T04:32:53.323Z,7.95
2018-12-25T04:35:22.093Z,6.62
2018-12-25T04:37:50.873Z,9.20
2018-12-25T04:40:19.605Z,9.88
2018-12-25T04:42:48.357Z,8.35
2018-12-25T04:45:17.093Z,9.18
2018-12-25T04:47:45.879Z,8.10
2018-12-25T04:50:14.635Z,11.03
2018-12-25T04:52:43.380Z,10.95
2018-12-25T04:55:12.104Z,5.22
2018-12-25T04:57:40.866Z,10.32
2018-12-25T05:00:10.019Z,9.88
2018-12-25T05:02:38.901Z,13.03
2018-12-25T05:05:07.700Z,5.97
2018-12-25T05:07:36.446Z,6.80
2018-12-25T05:10:06.174Z,7.60
2018-12-25T05:12:35.029Z,16.62
2018-12-25T05:15:04.494Z,4.90
2018-12-25T05:17:33.274Z,5.35
2018-12-25T05:20:02.075Z,5.42
2018-12-25T05:22:30.810Z,5.00
2018-12-25T05:24:59.552Z,9.88
2018-12-25T05:27:47.750Z,7.05
2018-12-25T05:30:35.513Z,5.53
2018-12-25T05:33:23.322Z,8.88
2018-12-25T05:36:11.102Z,9.80
2018-12-25T05:38:58.971Z,7.55
2018-12-25T05:41:47.101Z,5.20
2018-12-25T05:44:34.965Z,8.78
2018-12-25T05:47:22.714Z,5.28
2018-12-25T05:50:10.637Z,12.93
2018-12-25T05:52:58.445Z,3.72
2018-12-25T05:55:46.243Z,5.90
2018-12-25T05:58:34.023Z,5.00
2018-12-25T06:01:21.780Z,7.28
2018-12-25T06:04:09.538Z,6.15
2018-12-25T06:06:57.323Z,4.60
2018-12-25T07:00:26.806Z,8.13
2018-12-25T07:24:14.404Z,3.00
2018-12-25T08:47:47.126Z,3.67
2018-12-25T08:59:26.244Z,15.83
2018-12-25T09:53:10.479Z,10.13
2018-12-25T09:55:52.228Z,6.62
2018-12-25T10:07:32.498Z,4.67
2018-12-25T10:37:06.933Z,3.35
2018-12-25T11:09:53.550Z,6.72
2018-12-25T11:12:35.014Z,6.55
2018-12-25T11:21:27.231Z,4.35
2018-12-25T11:24:08.635Z,5.20
2018-12-25T11:33:01.414Z,3.25
2018-12-25T11:56:34.152Z,5.83
2018-12-25T12:20:09.325Z,4.87
2018-12-25T12:22:50.455Z,6.00
2018-12-25T12:58:34.902Z,6.78
2018-12-25T13:07:29.207Z,4.85
2018-12-25T13:57:54.366Z,3.87
2018-12-25T14:39:27.213Z,7.65
2018-12-25T14:42:07.929Z,4.25
2018-12-25T14:44:46.612Z,7.55
2018-12-25T15:05:35.008Z,10.88
2018-12-25T16:31:47.318Z,7.28
2018-12-25T16:37:40.720Z,7.20
2018-12-25T16:40:21.306Z,8.03
2018-12-25T16:57:56.365Z,4.58
2018-12-25T17:00:25.105Z,7.83
2018-12-25T17:03:13.133Z,5.97
2018-12-25T17:06:00.895Z,6.85
2018-12-25T17:08:48.648Z,4.87
2018-12-25T17:11:36.464Z,9.93
2018-12-25T17:14:24.277Z,15.50
2018-12-25T17:17:12.044Z,8.85
2018-12-25T17:20:00.153Z,6.53
2018-12-25T17:22:48.005Z,5.00
2018-12-25T17:25:35.746Z,8.43
2018-12-25T17:37:12.966Z,6.95
2018-12-25T17:42:54.781Z,11.97
2018-12-25T17:45:42.594Z,5.78
2018-12-25T17:48:30.381Z,6.62
2018-12-25T17:51:18.491Z,4.70
2018-12-25T17:54:10.704Z,7.85
2018-12-25T17:56:56.086Z,6.72
2018-12-25T17:59:44.197Z,5.60
2018-12-25T18:02:31.951Z,7.80
2018-12-25T18:05:00.794Z,11.30
2018-12-25T18:07:48.534Z,10.75
2018-12-25T18:10:36.370Z,7.22
2018-12-25T18:13:17.120Z,6.25
2018-12-25T18:21:55.416Z,4.10
2018-12-25T18:27:49.585Z,7.12
2018-12-25T18:36:29.950Z,7.87
2018-12-25T18:39:18.500Z,10.35
2018-12-25T18:42:06.663Z,6.30
2018-12-25T18:44:55.081Z,4.30
2018-12-25T18:47:42.881Z,5.20
2018-12-25T18:50:30.641Z,6.90
2018-12-25T18:53:18.388Z,5.40
2018-12-25T18:56:06.494Z,6.83
2018-12-25T18:58:54.244Z,6.50
2018-12-25T19:01:42.069Z,6.50
2018-12-25T19:04:10.893Z,5.80
2018-12-25T19:06:58.702Z,7.45
2018-12-25T19:09:46.765Z,4.17
2018-12-25T19:12:34.553Z,8.45
2018-12-25T19:24:14.196Z,5.45
2018-12-25T19:26:42.935Z,6.62
2018-12-25T19:29:31.377Z,4.10
2018-12-25T19:32:19.440Z,4.95
2018-12-25T19:35:07.227Z,8.90
2018-12-25T19:37:35.989Z,9.50
2018-12-25T19:40:24.154Z,6.12
2018-12-25T19:42:52.931Z,4.87
2018-12-25T19:45:40.858Z,6.28
2018-12-25T19:48:29.021Z,8.58
2018-12-25T19:51:17.127Z,4.75
2018-12-25T19:54:05.188Z,8.50
2018-12-25T19:56:53.046Z,9.58
2018-12-25T19:59:40.868Z,4.33
2018-12-25T20:02:28.631Z,10.40
2018-12-25T20:05:36.041Z,6.47
2018-12-25T20:08:44.860Z,3.52
2018-12-25T20:11:52.298Z,6.17
2018-12-25T20:14:40.056Z,5.87
2018-12-25T20:17:48.852Z,8.65
2018-12-25T20:29:27.717Z,4.45
2018-12-25T20:32:17.311Z,6.62
2018-12-25T20:35:24.798Z,6.97
2018-12-25T20:38:12.778Z,5.78
2018-12-25T20:41:00.659Z,8.03
2018-12-25T20:44:08.136Z,8.13
2018-12-25T20:46:55.921Z,6.37
2018-12-25T20:50:03.342Z,4.22
2018-12-25T20:53:10.740Z,4.92
2018-12-25T20:55:58.863Z,5.08
2018-12-25T20:58:47.174Z,10.98
2018-12-25T21:01:54.644Z,8.05
2018-12-25T21:05:02.048Z,5.20
2018-12-25T21:07:49.875Z,7.12
2018-12-25T21:10:58.794Z,8.45
2018-12-25T21:17:18.948Z,3.70
2018-12-25T21:20:26.345Z,4.15
2018-12-25T21:23:33.772Z,7.50
2018-12-25T21:26:21.571Z,4.30
2018-12-25T21:29:09.346Z,5.12
2018-12-25T21:31:57.134Z,7.35
2018-12-25T21:34:25.864Z,3.47
2018-12-25T21:37:13.659Z,6.42
2018-12-25T21:39:43.182Z,7.10
2018-12-25T21:42:31.444Z,3.65
2018-12-25T21:45:19.241Z,8.20
2018-12-25T21:47:48.020Z,5.33
2018-12-25T21:50:16.793Z,13.08
2018-12-25T21:53:06.438Z,6.70
2018-12-25T21:55:35.273Z,9.68
2018-12-25T21:58:04.035Z,8.00
2018-12-25T22:00:35.268Z,7.10
2018-12-25T22:03:03.846Z,2.83
2018-12-25T22:05:32.833Z,4.60
2018-12-25T22:08:20.644Z,7.03
2018-12-25T22:11:08.404Z,4.62
2018-12-25T22:22:59.228Z,4.60
2018-12-25T22:37:36.128Z,5.35
2018-12-25T22:49:28.990Z,8.00
2018-12-25T23:22:02.956Z,5.00
2018-12-25T23:24:50.719Z,11.53
2018-12-25T23:27:38.554Z,7.12
2018-12-25T23:30:26.402Z,5.47
2018-12-25T23:33:14.261Z,6.55
2018-12-25T23:36:02.253Z,11.97
2018-12-25T23:38:50.036Z,6.42
2018-12-25T23:41:37.863Z,7.08
2018-12-25T23:44:25.739Z,9.43
2018-12-25T23:47:13.969Z,5.28
2018-12-25T23:50:01.769Z,10.85
2018-12-25T23:52:49.645Z,8.75
2018-12-25T23:55:37.452Z,6.95
